Time;durP1;ratioP1;P1;durP2;ratioP2;P2;SDS_P1;SDS_P2;PMS_P1;PMS_P2;Temp;Humidity;BMP_temperature;BMP_pressure;BME280_temperature;BME280_humidity;BME280_pressure;Samples;Min_cycle;Max_cycle;Signal;HPM_P1;HPM_P2
2022/10/09 02:32:47;;;;;;;2.42;1.50;;;;;;;17.08;79.75;102547.22;6334313;22;20041;-82
2022/10/09 02:35:34;;;;;;;3.55;1.52;;;;;;;17.08;79.70;102549.81;6365337;22;20017;-82
2022/10/09 02:38:01;;;;;;;1.92;1.40;;;;;;;17.08;79.56;102548.94;6343823;22;20445;-81
2022/10/09 02:40:27;;;;;;;3.15;1.70;;;;;;;17.06;79.80;102547.16;6339779;22;20003;-82
2022/10/09 02:42:56;;;;;;;2.33;1.35;;;;;;;17.05;79.45;102542.81;6346595;22;20003;-81
2022/10/09 02:45:23;;;;;;;2.38;1.33;;;;;;;17.08;79.43;102544.59;6365019;22;20010;-82
2022/10/09 02:47:50;;;;;;;2.67;1.67;;;;;;;17.05;79.40;102542.81;6387073;22;20002;-81
2022/10/09 02:50:24;;;;;;;2.13;1.30;;;;;;;17.07;79.46;102542.84;6366473;22;20020;-82
2022/10/09 02:52:52;;;;;;;2.67;1.50;;;;;;;17.06;79.50;102539.34;6393307;22;20028;-81
2022/10/09 02:55:20;;;;;;;2.28;1.52;;;;;;;17.06;78.89;102539.34;6393287;22;20461;-82
2022/10/09 02:58:15;;;;;;;2.40;1.40;;;;;;;17.06;79.59;102547.16;6367285;22;20074;-81
2022/10/09 03:01:03;;;;;;;2.22;1.38;;;;;;;17.05;79.58;102532.41;6365714;22;20006;-81
2022/10/09 03:03:54;;;;;;;2.33;1.40;;;;;;;17.06;79.55;102544.56;6387416;22;20070;-81
2022/10/09 03:06:24;;;;;;;2.40;1.40;;;;;;;17.04;78.95;102543.66;6366492;22;20006;-81
2022/10/09 03:08:52;;;;;;;2.35;1.20;;;;;;;17.07;79.57;102542.84;6392756;22;20057;-81
2022/10/09 03:11:20;;;;;;;1.88;1.20;;;;;;;17.03;78.87;102534.13;6390129;22;20057;-81
2022/10/09 03:14:24;;;;;;;2.53;1.30;;;;;;;17.05;78.93;102537.63;6364524;22;19994;-82
2022/10/09 03:16:50;;;;;;;2.65;1.20;;;;;;;17.03;78.80;102539.31;6358650;22;20003;-82
2022/10/09 03:19:17;;;;;;;2.28;1.30;;;;;;;17.04;79.17;102537.59;6358845;22;20044;-82
2022/10/09 03:21:42;;;;;;;2.17;1.15;;;;;;;17.04;79.15;102533.25;6331101;22;20007;-81
2022/10/09 03:24:09;;;;;;;2.55;1.30;;;;;;;17.04;79.07;102530.66;6352944;22;20010;-81
2022/10/09 03:26:35;;;;;;;1.85;1.23;;;;;;;17.03;79.01;102531.50;6327393;22;20036;-81
2022/10/09 03:29:01;;;;;;;4.00;1.40;;;;;;;17.03;78.94;102531.50;6302127;22;20014;-81
2022/10/09 03:31:28;;;;;;;1.85;1.25;;;;;;;17.04;79.16;102521.97;6348931;22;20014;-81
2022/10/09 03:52:01;;;;;;;1.83;1.40;;;;;;;17.02;77.39;102521.06;6318209;22;20018;-81
2022/10/09 03:54:26;;;;;;;2.17;1.20;;;;;;;17.02;78.63;102518.47;6331814;22;20041;-82
2022/10/09 03:56:52;;;;;;;2.28;1.40;;;;;;;17.03;78.85;102515.91;6357584;22;20005;-81
2022/10/09 03:59:19;;;;;;;2.17;1.27;;;;;;;17.03;78.79;102520.25;6383506;22;20001;-81
2022/10/09 04:01:44;;;;;;;2.13;1.30;;;;;;;17.01;78.53;102517.59;6356283;22;19998;-82
2022/10/09 04:04:13;;;;;;;1.35;1.02;;;;;;;17.01;78.57;102509.78;6356835;22;20003;-82
2022/10/09 04:06:39;;;;;;;2.95;1.48;;;;;;;17.00;78.47;102515.81;6385195;22;20022;-82
2022/10/09 04:09:05;;;;;;;2.45;1.30;;;;;;;17.01;79.03;102525.41;6358020;22;20006;-82
2022/10/09 04:11:41;;;;;;;2.45;1.30;;;;;;;17.01;78.63;102515.00;6360676;22;20013;-82
2022/10/09 04:14:07;;;;;;;2.13;1.20;;;;;;;17.01;78.86;102515.00;6329469;22;20476;-82
2022/10/09 04:16:33;;;;;;;2.60;1.27;;;;;;;17.00;78.68;102512.34;6384346;22;20017;-81
2022/10/09 04:19:04;;;;;;;1.83;1.17;;;;;;;16.99;78.19;102521.88;6351429;22;20002;-81
2022/10/09 04:21:32;;;;;;;3.58;1.20;;;;;;;16.98;78.40;102514.91;6350980;22;20472;-81
2022/10/09 04:23:57;;;;;;;1.98;1.10;;;;;;;16.95;76.57;102514.88;6351281;22;20034;-81
2022/10/09 04:26:23;;;;;;;1.75;1.20;;;;;;;16.99;77.88;102518.41;6378030;22;20009;-81
2022/10/09 04:28:51;;;;;;;2.03;1.00;;;;;;;16.98;78.13;102525.31;6349577;22;20426;-80
2022/10/09 04:31:16;;;;;;;3.88;1.42;;;;;;;16.99;78.15;102521.88;6323366;22;20018;-80
2022/10/09 04:33:42;;;;;;;1.65;1.02;;;;;;;16.99;78.24;102526.22;6349039;22;20326;-79
2022/10/09 04:36:07;;;;;;;3.63;1.30;;;;;;;16.98;77.88;102521.84;6349228;22;20013;-79
2022/10/09 04:38:33;;;;;;;2.55;1.48;;;;;;;16.99;78.27;102515.81;6348892;22;20017;-79
2022/10/09 04:41:04;;;;;;;2.95;1.45;;;;;;;16.97;77.92;102520.97;6323617;22;20032;-79
2022/10/09 04:43:31;;;;;;;2.15;1.15;;;;;;;16.98;78.10;102514.06;6349373;22;19997;-80
2022/10/09 04:45:57;;;;;;;3.05;1.35;;;;;;;16.94;77.44;102507.94;6348429;22;20013;-79
2022/10/09 04:48:22;;;;;;;1.90;1.13;;;;;;;16.97;78.20;102510.56;6316770;22;20018;-79
2022/10/09 04:50:48;;;;;;;2.40;1.30;;;;;;;16.95;77.19;102495.81;6317325;22;20006;-79
2022/10/09 04:53:16;;;;;;;1.90;1.45;;;;;;;16.93;77.55;102492.28;6266896;22;1139319;-79
2022/10/09 04:55:48;;;;;;;2.17;1.00;;;;;;;16.97;77.71;102496.72;6292788;22;20022;-81
2022/10/09 04:58:14;;;;;;;2.15;1.10;;;;;;;16.98;78.01;102498.44;6291021;22;20018;-80
2022/10/09 05:00:42;;;;;;;2.08;1.10;;;;;;;16.97;78.05;102486.31;6318562;22;20003;-82
2022/10/09 05:03:14;;;;;;;3.22;1.25;;;;;;;16.97;77.81;102500.19;6325683;22;20002;-82
2022/10/09 05:05:40;;;;;;;2.92;1.30;;;;;;;16.93;77.68;102485.34;6323789;22;19999;-80
2022/10/09 05:08:08;;;;;;;1.75;1.17;;;;;;;16.93;77.33;102492.28;6324470;22;20017;-80
2022/10/09 05:10:37;;;;;;;1.58;1.10;;;;;;;16.92;77.14;102499.22;6325229;22;20006;-79
2022/10/09 05:13:03;;;;;;;2.63;1.10;;;;;;;16.92;76.58;102499.22;6321961;22;20010;-80
2022/10/09 05:15:29;;;;;;;2.17;1.35;;;;;;;16.88;75.93;102502.59;6296653;22;20014;-80
2022/10/09 05:17:54;;;;;;;2.03;1.10;;;;;;;16.93;77.40;102500.97;6323321;22;20052;-80
2022/10/09 05:20:20;;;;;;;1.85;1.20;;;;;;;16.93;77.42;102495.75;6296480;22;20006;-81
2022/10/09 05:22:48;;;;;;;1.50;1.00;;;;;;;16.96;77.36;102497.53;6323535;22;20034;-80
2022/10/09 05:25:17;;;;;;;1.63;1.20;;;;;;;16.91;76.99;102505.25;6349891;22;20010;-80
2022/10/09 05:27:42;;;;;;;1.80;1.10;;;;;;;16.92;77.23;102501.81;6294622;22;20010;-79
2022/10/09 05:30:18;;;;;;;1.48;0.80;;;;;;;16.89;76.06;102496.53;6317443;22;20006;-79
2022/10/09 05:32:47;;;;;;;1.65;1.10;;;;;;;16.90;76.87;102500.91;6344887;22;20496;-79
2022/10/09 05:35:12;;;;;;;1.92;1.10;;;;;;;16.92;76.79;102495.72;6317522;22;20013;-79
2022/10/09 05:37:38;;;;;;;2.65;1.20;;;;;;;16.91;76.83;102502.66;6316033;22;20094;-80
2022/10/09 05:40:04;;;;;;;2.28;1.05;;;;;;;16.92;77.04;102501.81;6315770;22;20010;-79
2022/10/09 05:42:29;;;;;;;2.20;1.20;;;;;;;16.93;76.97;102503.56;6316403;22;20002;-79
2022/10/09 05:44:55;;;;;;;1.67;1.20;;;;;;;16.93;77.34;102505.28;6349036;22;20073;-80
2022/10/09 05:47:20;;;;;;;2.15;1.05;;;;;;;16.93;76.67;102502.69;6294704;22;20011;-80
2022/10/09 05:49:45;;;;;;;2.17;1.00;;;;;;;16.91;76.68;102500.06;6319958;22;20013;-79
2022/10/09 05:52:12;;;;;;;1.45;1.10;;;;;;;16.92;77.08;102499.22;6294531;22;20030;-80
2022/10/09 05:54:38;;;;;;;1.55;1.00;;;;;;;16.92;76.75;102498.31;6319428;22;20481;-79
2022/10/09 05:57:03;;;;;;;1.73;1.10;;;;;;;16.90;75.93;102498.31;6347093;22;20003;-80
2022/10/09 05:59:29;;;;;;;2.63;1.27;;;;;;;16.92;76.99;102496.63;6318994;22;20007;-80
2022/10/09 06:01:54;;;;;;;1.80;1.00;;;;;;;16.91;76.63;102499.19;6321199;22;20009;-80
2022/10/09 06:04:22;;;;;;;1.77;1.13;;;;;;;16.93;76.88;102510.50;6322192;22;20083;-80
2022/10/09 06:06:47;;;;;;;3.38;1.10;;;;;;;16.92;76.35;102504.41;6361965;22;20003;-79
2022/10/09 06:09:15;;;;;;;1.52;1.00;;;;;;;16.93;76.84;102502.69;6321907;22;20074;-79
2022/10/09 06:11:41;;;;;;;2.10;1.10;;;;;;;16.91;76.48;102494.84;6320709;22;20010;-79
2022/10/09 06:14:09;;;;;;;2.70;0.95;;;;;;;16.94;76.74;102489.72;6320975;22;20007;-80
2022/10/09 06:16:37;;;;;;;1.63;1.00;;;;;;;16.90;76.13;102493.13;6320636;22;20095;-80
2022/10/09 06:19:04;;;;;;;1.55;1.00;;;;;;;16.91;76.07;102493.97;6319620;22;20085;-80
2022/10/09 06:21:30;;;;;;;1.60;0.80;;;;;;;16.93;76.40;102493.16;6319412;22;20049;-80
2022/10/09 06:23:58;;;;;;;2.15;0.95;;;;;;;16.94;75.97;102504.44;6294196;22;20334;-80
2022/10/09 06:26:24;;;;;;;1.33;0.98;;;;;;;16.98;76.83;102501.91;6320027;22;20380;-79
2022/10/09 06:28:51;;;;;;;1.92;1.13;;;;;;;16.96;75.63;102502.75;6319233;22;19999;-80
2022/10/09 06:55:33;;;;;;;24.70;7.65;;;;;;;16.97;75.91;102507.97;6353838;22;20022;-81
2022/10/09 06:58:37;;;;;;;39.20;11.43;;;;;;;16.98;75.78;102514.91;6363248;22;20018;-86
2022/10/09 07:01:43;;;;;;;29.27;8.90;;;;;;;17.01;75.63;102511.53;6330214;22;20015;-81
2022/10/09 07:06:51;;;;;;;22.92;7.80;;;;;;;17.02;75.62;102503.72;6355686;22;20032;-80
2022/10/09 07:09:27;;;;;;;33.00;7.97;;;;;;;17.00;75.34;102501.97;6359834;22;20026;-81
2022/10/09 07:14:35;;;;;;;19.38;6.47;;;;;;;16.99;75.05;102501.09;6377824;22;20052;-82
2022/10/09 07:20:09;;;;;;;19.08;6.20;;;;;;;17.05;76.47;102509.00;6368160;22;20018;-80
2022/10/09 07:22:40;;;;;;;13.10;5.93;;;;;;;17.07;75.46;102503.81;6388216;22;19994;-82
2022/10/09 07:25:08;;;;;;;19.60;5.78;;;;;;;17.04;74.27;102514.19;6364264;22;20002;-82
2022/10/09 07:27:52;;;;;;;12.57;5.00;;;;;;;17.08;75.86;102512.53;6390874;22;20006;-81
2022/10/09 07:30:27;;;;;;;11.63;4.97;;;;;;;17.05;75.24;102511.63;6393859;22;20003;-82
2022/10/09 07:33:41;;;;;;;13.88;5.28;;;;;;;17.12;75.44;102509.13;6366903;22;19998;-82
2022/10/09 07:36:12;;;;;;;11.57;4.97;;;;;;;17.25;75.39;102517.19;6361381;22;20014;-79
2022/10/09 07:41:59;;;;;;;13.27;5.13;;;;;;;17.67;74.51;102515.31;6334361;22;20007;-81
2022/10/09 07:44:32;;;;;;;13.13;4.80;;;;;;;17.81;74.23;102512.94;6273881;22;20015;-81
2022/10/09 07:47:26;;;;;;;12.35;4.50;;;;;;;17.94;74.36;102511.44;6304390;22;20079;-81
2022/10/09 07:50:31;;;;;;;10.73;4.38;;;;;;;17.98;74.29;102508.88;6333718;22;20010;-82
2022/10/09 07:57:11;;;;;;;;;;;;;;;;;;;;;
2022/10/09 08:24:24;;;;;;;7.43;3.22;;;;;;;17.94;76.44;102503.63;6378212;22;20006;31
2022/10/09 08:26:57;;;;;;;7.28;3.38;;;;;;;17.92;76.42;102500.09;6331454;22;20010;-82
2022/10/09 08:29:23;;;;;;;;;;;;;;;17.91;76.58;102501.84;6316829;22;20023;-79
2022/10/09 09:11:20;;;;;;;8.07;3.20;;;;;;;17.67;78.36;102469.31;6361161;22;20036;-84
2022/10/09 09:28:40;;;;;;;7.68;2.85;;;;;;;17.57;78.65;102446.63;6212733;23;20039;-83
2022/10/09 09:34:57;;;;;;;10.52;2.88;;;;;;;17.55;78.78;102447.41;6212201;23;20012;-83
2022/10/09 09:37:24;;;;;;;5.18;2.65;;;;;;;17.54;78.60;102446.53;6206005;23;20118;-82
2022/10/09 11:58:24;;;;;;;9.50;1.83;;;;;;;17.25;66.36;102275.22;6286899;22;20057;31
2022/10/09 17:18:57;;;;;;;4.07;1.58;;;;;;;17.83;62.33;101822.09;6383184;22;20044;-80
2022/10/09 17:21:23;;;;;;;4.57;1.52;;;;;;;17.83;62.75;101819.50;6359235;22;20022;-79
2022/10/09 17:23:54;;;;;;;5.25;1.98;;;;;;;17.84;62.73;101821.22;6385492;22;19998;-80
2022/10/09 17:29:14;;;;;;;7.18;2.33;;;;;;;17.85;63.42;101822.94;6387852;22;20014;-81
2022/10/09 17:35:35;;;;;;;5.77;1.83;;;;;;;17.90;63.75;101823.00;6397903;22;20043;-82
2022/10/09 18:15:08;;;;;;;5.15;2.15;;;;;;;17.86;64.13;101803.88;6352335;22;20011;-81
2022/10/09 18:20:20;;;;;;;3.85;1.80;;;;;;;17.87;63.99;101802.13;6390378;22;20026;-81
2022/10/09 18:22:47;;;;;;;4.75;1.70;;;;;;;17.89;64.11;101805.63;6364479;22;20026;-80
2022/10/09 18:25:40;;;;;;;3.60;1.50;;;;;;;17.85;64.56;101802.13;6337391;22;19994;-81
2022/10/09 18:39:44;;;;;;;3.78;1.60;;;;;;;17.71;65.80;101793.34;6363248;22;20018;-82
2022/10/09 18:42:41;;;;;;;4.32;1.70;;;;;;;17.71;65.90;101782.09;6363648;22;20079;-82
2022/10/09 18:45:39;;;;;;;5.68;1.67;;;;;;;17.71;66.19;101780.34;6364122;22;20042;-81
2022/10/09 18:48:07;;;;;;;6.50;2.00;;;;;;;17.72;66.04;101782.06;6391037;22;20006;-81
2022/10/09 18:50:45;;;;;;;6.32;1.88;;;;;;;17.70;66.17;101781.19;6364746;22;19993;-82
2022/10/09 18:53:13;;;;;;;5.50;2.00;;;;;;;17.70;66.47;101770.78;6366995;22;20013;-82
2022/10/09 18:55:43;;;;;;;8.70;1.85;;;;;;;17.69;66.22;101769.06;6326141;22;20026;-82
2022/10/09 19:09:06;;;;;;;5.25;1.90;;;;;;;17.65;66.59;101746.47;6309097;22;20019;-81
2022/10/09 19:18:38;;;;;;;4.45;1.70;;;;;;;17.64;66.34;101742.13;6399688;22;20025;-82
2022/10/09 20:53:10;;;;;;;3.58;1.95;;;;;;;17.50;65.20;101643.16;6358973;22;20034;-83
2022/10/09 21:29:54;;;;;;;3.00;1.80;;;;;;;17.51;64.87;101600.69;6382537;22;20070;-82
2022/10/09 21:33:09;;;;;;;4.28;2.05;;;;;;;17.51;64.81;101598.09;6334506;22;20015;-82
2022/10/09 21:43:20;;;;;;;4.53;2.20;;;;;;;17.52;64.97;101598.94;6377451;22;20002;-87
2022/10/09 21:45:48;;;;;;;4.65;2.50;;;;;;;17.53;64.84;101600.66;6322203;22;20056;-89
2022/10/09 21:48:15;;;;;;;4.80;2.35;;;;;;;17.52;64.75;101601.53;6350406;22;19998;-88
2022/10/09 21:50:41;;;;;;;3.30;2.00;;;;;;;17.53;65.18;101606.75;6348793;22;20006;-90
2022/10/09 21:53:06;;;;;;;3.65;2.17;;;;;;;17.53;64.96;101603.25;6322607;22;20041;-90
2022/10/09 21:55:32;;;;;;;4.53;2.38;;;;;;;17.53;65.02;101592.84;6348781;22;20006;-90
2022/10/09 21:57:57;;;;;;;4.72;2.40;;;;;;;17.51;64.85;101590.28;6336591;22;20010;-85
2022/10/09 22:00:23;;;;;;;4.57;2.30;;;;;;;17.52;64.72;101592.00;6323826;22;20021;-90
2022/10/09 22:02:48;;;;;;;4.88;2.30;;;;;;;17.52;64.78;101589.41;6348113;22;20063;-91
2022/10/09 22:05:14;;;;;;;6.00;2.53;;;;;;;17.53;64.87;101588.53;6322328;22;20338;-90
2022/10/09 22:07:39;;;;;;;4.43;2.30;;;;;;;17.52;64.84;101589.41;6323494;22;20333;-91
2022/10/09 22:10:06;;;;;;;6.93;2.67;;;;;;;17.51;64.96;101585.06;6322973;22;20060;-89
2022/10/09 22:12:31;;;;;;;6.22;2.55;;;;;;;17.52;64.91;101584.19;6349869;22;19999;-92
2022/10/09 22:14:57;;;;;;;4.95;2.25;;;;;;;17.52;64.71;101573.78;6321566;22;20018;-90
2022/10/09 22:17:22;;;;;;;5.55;2.65;;;;;;;17.51;64.81;101572.06;6321763;22;20034;-90
2022/10/09 22:19:48;;;;;;;4.55;2.28;;;;;;;17.51;64.81;101564.25;6321269;22;19994;-92
2022/10/09 22:22:13;;;;;;;7.07;2.08;;;;;;;17.52;64.79;101567.72;6346636;22;20007;-92
2022/10/09 22:24:38;;;;;;;3.92;2.20;;;;;;;17.52;64.84;101562.50;6373846;22;20002;-90
2022/10/09 22:27:06;;;;;;;3.88;2.20;;;;;;;17.52;64.92;101559.91;6323786;22;20013;-90
2022/10/09 22:29:31;;;;;;;3.85;1.67;;;;;;;17.51;64.66;101561.66;6323474;22;20006;-90
2022/10/09 22:31:56;;;;;;;3.58;2.08;;;;;;;17.51;64.91;101551.25;6322609;22;20447;-90
2022/10/09 22:34:22;;;;;;;4.43;2.00;;;;;;;17.51;64.73;101555.53;6323000;22;20003;-90
2022/10/09 22:36:47;;;;;;;3.72;2.15;;;;;;;17.51;64.58;101559.03;6322880;22;20330;-91
2022/10/09 22:39:13;;;;;;;3.83;2.00;;;;;;;17.51;64.66;101546.03;6349933;22;20056;-91
2022/10/09 22:41:39;;;;;;;4.38;2.20;;;;;;;17.51;64.43;101545.13;6310160;22;20018;-90
2022/10/09 22:44:09;;;;;;;4.72;2.08;;;;;;;17.50;64.56;101541.69;6312927;22;20015;-90
2022/10/09 22:46:37;;;;;;;3.90;2.05;;;;;;;17.51;64.57;101537.34;6286711;22;20007;-89
2022/10/09 22:49:03;;;;;;;6.28;2.28;;;;;;;17.50;64.70;101540.81;6312934;22;20082;-90
2022/10/09 22:51:29;;;;;;;3.75;2.00;;;;;;;17.51;64.47;101543.44;6288658;22;20420;-89
2022/10/09 22:53:56;;;;;;;4.32;2.00;;;;;;;17.51;64.33;101545.13;6289943;22;20090;-90
2022/10/09 22:56:37;;;;;;;3.22;1.85;;;;;;;17.51;64.61;101545.13;6288383;22;20015;-90
2022/10/09 22:59:04;;;;;;;4.22;1.90;;;;;;;17.50;64.48;101538.22;6314787;22;20026;-91
2022/10/09 23:07:57;;;;;;;3.80;1.92;;;;;;;17.50;64.37;101526.06;6318816;22;20014;-89
2022/10/09 23:10:23;;;;;;;3.60;1.95;;;;;;;17.51;64.52;101530.41;6289213;22;20007;-90
2022/10/09 23:12:48;;;;;;;3.20;1.73;;;;;;;17.48;64.30;101518.28;6261955;22;20027;-90
2022/10/09 23:15:14;;;;;;;4.03;1.80;;;;;;;17.49;64.54;101513.94;6289098;22;20037;-90
2022/10/09 23:17:39;;;;;;;3.65;2.15;;;;;;;17.48;64.48;101523.47;6289812;22;20404;-91
2022/10/09 23:20:05;;;;;;;3.92;1.80;;;;;;;17.50;64.60;101514.78;6289580;22;20007;-89
2022/10/09 23:22:31;;;;;;;3.17;1.65;;;;;;;17.50;64.61;101512.19;6272146;22;19983;-85
2022/10/09 23:24:56;;;;;;;3.05;1.75;;;;;;;17.50;64.38;101512.19;6296384;22;20336;-89
2022/10/09 23:27:22;;;;;;;2.65;1.60;;;;;;;17.50;64.34;101501.78;6292419;22;20038;-89
2022/10/09 23:29:47;;;;;;;2.88;1.60;;;;;;;17.49;64.30;101511.34;6267955;22;20057;-88
2022/10/09 23:32:12;;;;;;;2.85;1.85;;;;;;;17.49;64.42;101500.94;6318111;22;20015;-90
2022/10/09 23:34:38;;;;;;;3.38;1.80;;;;;;;17.50;64.44;101501.78;6267985;22;20042;-88
2022/10/09 23:37:03;;;;;;;3.95;1.70;;;;;;;17.48;64.46;101494.84;6290862;22;20008;-90
2022/10/09 23:39:29;;;;;;;4.00;2.10;;;;;;;17.48;64.26;101492.25;6265628;22;20309;-90
2022/10/09 23:41:54;;;;;;;3.63;1.58;;;;;;;17.48;64.39;101489.66;6317556;22;20007;-91
2022/10/09 23:44:19;;;;;;;3.00;1.58;;;;;;;17.49;64.23;101498.31;6273072;22;20018;-90
2022/10/09 23:46:45;;;;;;;2.47;1.60;;;;;;;17.48;64.14;101493.97;6302731;22;20074;-91
2022/10/09 23:49:10;;;;;;;2.70;1.80;;;;;;;17.50;64.34;101494.84;6301212;22;20149;-89
2022/10/09 23:51:36;;;;;;;3.63;1.63;;;;;;;17.51;64.41;101500.91;6299322;22;20014;-90
2022/10/09 23:54:02;;;;;;;2.03;1.20;;;;;;;17.48;64.19;101493.97;6324648;22;20064;-90
2022/10/09 23:56:31;;;;;;;3.45;1.60;;;;;;;17.48;64.18;101489.66;6298307;22;20373;-90
2022/10/09 23:58:58;;;;;;;2.60;1.40;;;;;;;17.48;64.31;101489.66;6320615;22;20011;-89
